createdAt,value
2017-12-08T00:00:56.984Z,19.50
2017-12-08T00:03:30.013Z,18.65
2017-12-08T00:05:57.584Z,18.12
2017-12-08T00:08:25.157Z,20.25
2017-12-08T00:10:52.737Z,19.55
2017-12-08T00:13:20.319Z,18.52
2017-12-08T00:15:47.920Z,19.73
2017-12-08T00:18:22.663Z,22.13
2017-12-08T00:20:50.246Z,20.60
2017-12-08T00:23:17.824Z,17.77
2017-12-08T00:25:47.374Z,20.88
2017-12-08T00:28:14.959Z,20.55
2017-12-08T00:30:42.548Z,24.42
2017-12-08T00:33:10.936Z,20.25
2017-12-08T00:35:40.044Z,19.67
2017-12-08T00:38:07.668Z,17.17
2017-12-08T00:40:35.242Z,19.45
2017-12-08T00:43:02.848Z,17.62
2017-12-08T00:45:30.498Z,20.77
2017-12-08T00:48:02.940Z,18.50
2017-12-08T00:50:31.292Z,19.12
2017-12-08T00:53:02.511Z,22.80
2017-12-08T00:55:30.234Z,19.87
2017-12-08T00:57:58.572Z,16.02
2017-12-08T01:00:26.160Z,19.05
2017-12-08T01:02:53.752Z,20.45
2017-12-08T01:05:21.314Z,20.05
2017-12-08T01:07:48.890Z,20.10
2017-12-08T01:10:21.569Z,25.58
2017-12-08T01:12:49.144Z,22.65
2017-12-08T01:15:16.676Z,17.45
2017-12-08T01:17:52.720Z,20.67
2017-12-08T01:20:20.297Z,14.90
2017-12-08T01:22:50.440Z,20.25
2017-12-08T01:25:21.276Z,16.48
2017-12-08T01:27:48.856Z,19.98
2017-12-08T01:30:16.420Z,20.48
2017-12-08T01:32:43.992Z,21.87
2017-12-08T01:35:11.645Z,18.87
2017-12-08T01:37:40.130Z,16.90
2017-12-08T01:40:11.732Z,20.80
2017-12-08T01:42:41.197Z,18.40
2017-12-08T01:45:11.195Z,17.87
2017-12-08T01:47:43.332Z,18.95
2017-12-08T01:50:10.899Z,16.85
2017-12-08T01:52:40.134Z,24.58
2017-12-08T01:55:14.452Z,17.92
2017-12-08T01:57:44.430Z,18.55
2017-12-08T02:00:15.569Z,16.08
2017-12-08T02:02:43.138Z,15.18
2017-12-08T02:05:14.968Z,16.50
2017-12-08T02:07:44.860Z,21.15
2017-12-08T02:10:18.399Z,16.33
2017-12-08T02:12:46.675Z,22.42
2017-12-08T02:15:18.444Z,17.52
2017-12-08T02:17:47.005Z,19.55
2017-12-08T02:20:22.320Z,21.12
2017-12-08T02:22:51.109Z,17.52
2017-12-08T02:25:21.998Z,20.73
2017-12-08T02:27:49.607Z,20.75
2017-12-08T02:30:17.241Z,19.52
2017-12-08T02:32:51.039Z,16.60
2017-12-08T02:35:23.880Z,19.12
2017-12-08T02:37:55.857Z,19.42
2017-12-08T02:40:23.604Z,18.10
2017-12-08T02:42:51.135Z,21.15
2017-12-08T02:45:19.497Z,22.60
2017-12-08T02:47:47.996Z,18.55
2017-12-08T02:50:16.082Z,27.13
2017-12-08T02:52:43.682Z,26.45
2017-12-08T02:55:12.976Z,25.60
2017-12-08T02:57:40.676Z,23.15
2017-12-08T03:00:10.008Z,26.73
2017-12-08T03:02:37.541Z,25.05
2017-12-08T03:05:05.190Z,24.02
2017-12-08T03:07:32.767Z,28.33
2017-12-08T03:10:00.338Z,26.98
2017-12-08T03:12:28.217Z,26.45
2017-12-08T03:14:56.240Z,27.85
2017-12-08T03:17:26.386Z,29.27
2017-12-08T03:19:53.968Z,28.25
2017-12-08T03:22:24.506Z,28.17
2017-12-08T03:24:56.192Z,32.30
2017-12-08T03:27:23.963Z,29.90
2017-12-08T03:29:51.572Z,34.47
2017-12-08T03:32:19.151Z,31.83
2017-12-08T03:34:46.757Z,29.92
2017-12-08T03:37:14.364Z,30.08
2017-12-08T03:39:44.932Z,33.53
2017-12-08T03:42:12.549Z,26.92
2017-12-08T03:44:42.400Z,30.52
2017-12-08T03:47:09.989Z,34.05
2017-12-08T03:49:37.575Z,42.30
2017-12-08T03:52:09.312Z,45.90
2017-12-08T03:54:38.064Z,41.17
2017-12-08T03:57:11.204Z,32.50
2017-12-08T03:59:40.819Z,32.40
2017-12-08T04:02:08.467Z,27.92
2017-12-08T04:04:36.004Z,31.60
2017-12-08T04:07:03.580Z,27.40
2017-12-08T04:09:31.153Z,28.87
2017-12-08T04:11:58.718Z,26.17
2017-12-08T04:14:29.011Z,27.60
2017-12-08T04:16:56.605Z,30.17
2017-12-08T04:19:24.139Z,29.33
2017-12-08T04:21:51.727Z,29.75
2017-12-08T04:24:26.119Z,32.05
2017-12-08T04:26:53.661Z,35.40
2017-12-08T04:29:22.097Z,28.60
2017-12-08T04:31:52.071Z,29.75
2017-12-08T04:34:19.651Z,28.60
2017-12-08T04:36:49.212Z,31.80
2017-12-08T04:39:17.791Z,31.02
2017-12-08T04:41:45.388Z,26.33
2017-12-08T04:44:12.988Z,27.73
2017-12-08T04:46:40.602Z,30.12
2017-12-08T04:49:10.308Z,27.23
2017-12-08T04:51:40.062Z,27.08
2017-12-08T04:54:07.853Z,26.95
2017-12-08T04:56:35.406Z,28.58
2017-12-08T04:59:04.003Z,29.58
2017-12-08T05:01:31.566Z,32.85
2017-12-08T05:04:00.589Z,35.40
2017-12-08T05:06:28.169Z,32.95
2017-12-08T05:08:55.748Z,33.45
2017-12-08T05:11:23.302Z,33.10
2017-12-08T05:13:50.891Z,27.33
2017-12-08T05:16:18.477Z,30.35
2017-12-08T05:18:48.497Z,27.37
2017-12-08T05:21:16.108Z,26.12
2017-12-08T05:23:47.293Z,35.85
2017-12-08T05:26:14.879Z,24.87
2017-12-08T05:28:42.430Z,24.60
2017-12-08T05:31:10.024Z,31.50
2017-12-08T05:33:40.017Z,21.87
2017-12-08T05:36:10.004Z,25.88
2017-12-08T05:38:37.549Z,20.12
2017-12-08T05:41:05.127Z,22.40
2017-12-08T05:43:32.702Z,24.37
2017-12-08T05:46:02.959Z,27.77
2017-12-08T05:48:31.288Z,21.95
2017-12-08T05:50:58.785Z,22.85
2017-12-08T05:53:29.891Z,26.20
2017-12-08T05:56:02.186Z,21.77
2017-12-08T05:58:29.710Z,22.20
2017-12-08T06:00:58.263Z,20.20
2017-12-08T06:03:29.579Z,21.85
2017-12-08T06:06:03.370Z,20.83
2017-12-08T06:08:33.808Z,19.15
2017-12-08T06:11:03.690Z,21.25
2017-12-08T06:13:31.267Z,18.58
2017-12-08T06:16:00.619Z,21.40
2017-12-08T06:18:28.964Z,20.80
2017-12-08T06:20:56.536Z,23.98
2017-12-08T06:23:24.117Z,20.25
2017-12-08T06:25:52.458Z,24.37
2017-12-08T06:28:21.031Z,24.10
2017-12-08T06:30:51.032Z,17.33
2017-12-08T06:33:18.597Z,16.55
2017-12-08T06:35:46.195Z,26.12
2017-12-08T06:38:14.558Z,16.98
2017-12-08T06:40:42.135Z,22.20
2017-12-08T06:43:09.736Z,21.30
2017-12-08T06:45:37.308Z,17.73
2017-12-08T06:48:04.900Z,17.98
2017-12-08T06:50:32.430Z,23.87
2017-12-08T06:53:05.837Z,24.30
2017-12-08T06:55:37.846Z,18.80
2017-12-08T06:58:12.008Z,21.87
2017-12-08T07:00:39.599Z,21.50
2017-12-08T07:03:07.171Z,19.00
2017-12-08T07:05:37.291Z,17.83
2017-12-08T07:08:08.479Z,22.10
2017-12-08T07:10:36.058Z,24.33
2017-12-08T07:13:03.699Z,26.65
2017-12-08T07:15:38.756Z,21.35
2017-12-08T07:18:12.563Z,20.48
2017-12-08T07:20:42.109Z,20.88
2017-12-08T07:23:11.409Z,23.23
2017-12-08T07:25:39.023Z,17.48
2017-12-08T07:28:08.800Z,22.08
2017-12-08T07:30:39.715Z,21.95
2017-12-08T07:33:08.334Z,20.37
2017-12-08T07:35:36.749Z,23.98
2017-12-08T07:38:06.154Z,21.77
2017-12-08T07:40:34.722Z,22.50
2017-12-08T07:43:02.318Z,26.67
2017-12-08T07:45:29.987Z,27.48
2017-12-08T07:48:01.347Z,25.58
2017-12-08T07:50:32.492Z,24.50
2017-12-08T07:53:03.543Z,31.65
2017-12-08T07:55:31.116Z,26.25
2017-12-08T07:58:00.561Z,30.37
2017-12-08T08:00:28.120Z,25.20
2017-12-08T08:02:55.716Z,23.58
2017-12-08T08:05:24.907Z,24.30
2017-12-08T08:07:52.491Z,23.00
2017-12-08T08:10:25.302Z,18.95
2017-12-08T08:12:58.259Z,23.23
2017-12-08T08:15:25.915Z,21.67
2017-12-08T08:17:54.318Z,23.52
2017-12-08T08:20:25.202Z,18.42
2017-12-08T08:22:52.873Z,17.70
2017-12-08T08:25:26.532Z,19.15
2017-12-08T08:27:54.187Z,24.12
2017-12-08T08:30:24.290Z,22.60
2017-12-08T08:32:54.927Z,20.35
2017-12-08T08:35:24.354Z,21.67
2017-12-08T08:37:52.035Z,20.90
2017-12-08T08:40:20.635Z,19.73
2017-12-08T08:42:49.568Z,19.40
2017-12-08T08:45:18.977Z,21.25
2017-12-08T08:47:46.615Z,23.35
2017-12-08T08:50:19.034Z,22.02
2017-12-08T08:52:53.236Z,17.42
2017-12-08T08:55:26.403Z,26.75
2017-12-08T08:57:56.042Z,21.55
2017-12-08T09:00:24.724Z,22.87
2017-12-08T09:02:52.972Z,20.37
2017-12-08T09:05:22.315Z,22.92
2017-12-08T09:07:50.251Z,24.45
2017-12-08T09:10:18.833Z,26.62
2017-12-08T09:12:56.862Z,23.05
2017-12-08T09:15:24.501Z,26.45
2017-12-08T09:17:52.119Z,22.25
2017-12-08T09:20:23.255Z,18.95
2017-12-08T09:22:54.736Z,26.10
2017-12-08T09:25:25.730Z,22.95
2017-12-08T09:27:55.839Z,18.67
2017-12-08T09:30:24.621Z,17.50
2017-12-08T09:32:52.974Z,17.55
2017-12-08T09:35:21.847Z,21.87
2017-12-08T09:37:50.733Z,24.48
2017-12-08T09:40:21.278Z,16.12
2017-12-08T09:42:49.383Z,19.15
2017-12-08T09:45:18.084Z,15.13
2017-12-08T09:47:45.686Z,24.95
2017-12-08T09:50:13.409Z,17.50
2017-12-08T09:52:41.400Z,17.02
2017-12-08T09:55:09.393Z,15.80
2017-12-08T09:57:37.179Z,16.40
2017-12-08T10:00:07.001Z,13.52
2017-12-08T10:02:36.112Z,9.15
2017-12-08T10:05:04.955Z,11.30
2017-12-08T10:07:33.280Z,12.50
2017-12-08T10:10:01.345Z,10.95
2017-12-08T10:12:29.512Z,6.85
2017-12-08T10:14:57.290Z,13.98
2017-12-08T10:17:24.992Z,5.93
2017-12-08T10:19:52.888Z,8.35
2017-12-08T10:22:21.693Z,11.10
2017-12-08T10:24:57.162Z,13.90
2017-12-08T10:27:24.938Z,12.27
2017-12-08T10:29:52.673Z,7.97
2017-12-08T10:32:20.378Z,16.65
2017-12-08T10:34:47.950Z,9.68
2017-12-08T10:37:16.390Z,9.70
2017-12-08T10:39:44.307Z,9.60
2017-12-08T10:42:16.703Z,10.75
2017-12-08T10:44:45.050Z,10.32
2017-12-08T10:47:13.038Z,13.43
2017-12-08T10:49:41.148Z,15.50
2017-12-08T10:52:09.005Z,8.63
2017-12-08T10:54:36.781Z,11.00
2017-12-08T10:57:04.623Z,16.02
2017-12-08T10:59:32.520Z,16.48
2017-12-08T11:02:00.594Z,15.15
2017-12-08T11:04:28.642Z,9.52
2017-12-08T11:06:56.592Z,14.75
2017-12-08T11:09:24.325Z,11.77
2017-12-08T11:11:51.999Z,12.37
2017-12-08T11:14:19.569Z,6.90
2017-12-08T11:16:49.021Z,19.85
2017-12-08T11:19:16.846Z,9.45
2017-12-08T11:21:45.622Z,17.80
2017-12-08T11:24:14.818Z,9.07
2017-12-08T11:26:42.766Z,11.80
2017-12-08T11:29:10.779Z,9.95
2017-12-08T11:31:38.570Z,8.23
2017-12-08T11:34:06.483Z,9.52
2017-12-08T11:36:35.860Z,6.87
2017-12-08T11:39:03.664Z,14.15
2017-12-08T11:41:31.700Z,7.97
2017-12-08T11:44:01.977Z,10.68
2017-12-08T11:46:31.007Z,11.10
2017-12-08T11:48:59.114Z,9.20
2017-12-08T11:51:27.111Z,8.93
2017-12-08T11:53:56.696Z,11.88
2017-12-08T11:56:28.733Z,9.50
2017-12-08T11:58:57.975Z,11.70
2017-12-08T12:01:27.152Z,11.77
2017-12-08T12:03:54.775Z,18.10
2017-12-08T12:06:27.425Z,6.03
2017-12-08T12:08:56.819Z,7.18
2017-12-08T12:11:27.935Z,10.27
2017-12-08T12:13:55.520Z,5.43
2017-12-08T12:16:23.131Z,5.57
2017-12-08T12:18:50.727Z,9.55
2017-12-08T12:21:18.307Z,7.82
2017-12-08T12:23:45.890Z,6.00
2017-12-08T12:26:13.480Z,6.60
2017-12-08T12:28:41.087Z,9.98
2017-12-08T12:31:08.903Z,7.95
2017-12-08T12:33:42.661Z,12.27
2017-12-08T12:36:11.032Z,7.60
2017-12-08T12:38:40.728Z,5.28
2017-12-08T12:41:11.302Z,14.45
2017-12-08T12:43:40.054Z,9.82
2017-12-08T12:46:08.696Z,9.73
2017-12-08T12:48:39.900Z,6.55
2017-12-08T12:53:39.477Z,3.15
2017-12-08T12:56:07.673Z,5.62
2017-12-08T12:58:35.404Z,6.50
2017-12-08T13:01:03.928Z,6.53
2017-12-08T13:03:31.951Z,6.82
2017-12-08T13:06:01.321Z,1.70
2017-12-08T13:08:34.263Z,1.50
2017-12-08T13:11:01.867Z,2.00
2017-12-08T13:13:31.912Z,1.60
2017-12-08T13:16:00.928Z,4.70
2017-12-08T13:18:31.812Z,4.65
2017-12-08T13:21:06.246Z,5.43
2017-12-08T13:23:34.824Z,1.20
2017-12-08T13:26:04.075Z,1.77
2017-12-08T13:28:31.755Z,1.33
2017-12-08T13:31:11.233Z,2.72
2017-12-08T13:33:42.012Z,3.35
2017-12-08T13:36:16.872Z,2.80
2017-12-08T13:38:48.328Z,5.40
2017-12-08T13:41:30.540Z,3.10
2017-12-08T13:44:05.221Z,3.75
2017-12-08T13:46:38.751Z,4.10
2017-12-08T13:49:07.287Z,3.50
2017-12-08T13:51:38.453Z,4.03
2017-12-08T13:54:20.726Z,8.45
2017-12-08T13:56:54.498Z,4.55
2017-12-08T13:59:26.914Z,4.85
2017-12-08T14:02:01.752Z,3.33
2017-12-08T14:04:30.875Z,3.08
2017-12-08T14:07:04.168Z,2.25
2017-12-08T14:09:39.097Z,3.20
2017-12-08T14:12:10.598Z,4.32
2017-12-08T14:14:49.001Z,4.40
2017-12-08T14:17:23.294Z,3.95
2017-12-08T14:19:57.889Z,3.50
2017-12-08T14:22:35.714Z,2.60
2017-12-08T14:25:10.334Z,6.68
2017-12-08T14:27:46.835Z,3.97
2017-12-08T14:30:18.170Z,2.35
2017-12-08T14:32:49.126Z,6.80
2017-12-08T14:35:17.488Z,6.00
2017-12-08T14:37:46.554Z,4.20
2017-12-08T14:40:14.187Z,4.62
2017-12-08T14:42:42.786Z,4.87
2017-12-08T14:45:14.427Z,6.12
2017-12-08T14:47:44.972Z,4.15
2017-12-08T14:50:13.006Z,5.50
2017-12-08T14:52:42.012Z,10.30
2017-12-08T14:55:09.736Z,4.47
2017-12-08T14:57:38.734Z,5.95
2017-12-08T15:00:09.176Z,7.22
2017-12-08T15:02:41.204Z,5.00
2017-12-08T15:05:08.812Z,6.68
2017-12-08T15:07:38.696Z,7.75
2017-12-08T15:10:07.075Z,5.95
2017-12-08T15:12:37.597Z,5.00
2017-12-08T15:15:05.223Z,10.68
2017-12-08T15:17:33.718Z,20.00
2017-12-08T15:20:01.315Z,4.82
2017-12-08T15:22:30.395Z,4.07
2017-12-08T15:24:58.957Z,15.52
2017-12-08T15:27:26.551Z,7.55
2017-12-08T15:29:54.136Z,6.80
2017-12-08T15:32:26.977Z,12.52
2017-12-08T15:34:55.459Z,5.85
2017-12-08T15:37:23.077Z,6.15
2017-12-08T15:39:50.780Z,5.93
2017-12-08T15:42:22.263Z,7.75
2017-12-08T15:44:53.334Z,4.85
2017-12-08T15:47:21.836Z,12.40
2017-12-08T15:49:52.319Z,9.25
2017-12-08T15:52:22.083Z,12.18
2017-12-08T15:54:49.749Z,19.15
2017-12-08T15:57:22.573Z,22.33
2017-12-08T15:59:51.076Z,24.73
2017-12-08T16:02:19.026Z,30.20
2017-12-08T16:04:49.552Z,28.12
2017-12-08T16:07:18.434Z,38.25
2017-12-08T16:09:54.977Z,33.67
2017-12-08T16:12:36.173Z,24.50
2017-12-08T16:15:08.230Z,19.50
2017-12-08T16:17:41.036Z,15.93
2017-12-08T16:20:09.845Z,17.83
2017-12-08T16:22:43.961Z,20.20
2017-12-08T16:25:15.914Z,18.75
2017-12-08T16:27:43.657Z,27.52
2017-12-08T16:30:16.198Z,35.95
2017-12-08T16:32:44.612Z,35.42
2017-12-08T16:35:17.992Z,21.50
2017-12-08T16:37:49.338Z,20.02
2017-12-08T16:40:17.051Z,17.35
2017-12-08T16:42:44.743Z,17.20
2017-12-08T16:45:12.360Z,30.92
2017-12-08T16:47:42.159Z,20.48
2017-12-08T16:53:07.667Z,15.75
2017-12-08T16:55:37.137Z,17.70
2017-12-08T16:58:04.789Z,18.60
2017-12-08T17:00:46.372Z,16.37
2017-12-08T17:03:14.865Z,20.30
2017-12-08T17:05:43.436Z,17.25
2017-12-08T17:08:11.828Z,13.57
2017-12-08T17:10:39.592Z,16.10
2017-12-08T17:13:08.412Z,15.07
2017-12-08T17:15:36.122Z,21.58
2017-12-08T17:18:03.687Z,18.17
2017-12-08T17:20:35.242Z,17.27
2017-12-08T17:23:02.875Z,10.63
2017-12-08T17:25:30.452Z,20.88
2017-12-08T17:27:58.231Z,11.20
2017-12-08T17:30:25.871Z,14.80
2017-12-08T17:32:59.526Z,12.65
2017-12-08T17:35:27.359Z,14.82
2017-12-08T17:37:55.869Z,23.85
2017-12-08T17:40:24.777Z,22.87
2017-12-08T17:42:52.389Z,9.23
2017-12-08T17:45:19.956Z,4.50
2017-12-08T17:47:49.559Z,6.68
2017-12-08T17:50:17.152Z,2.95
2017-12-08T17:52:45.240Z,2.55
2017-12-08T17:55:12.878Z,3.37
2017-12-08T17:57:40.754Z,4.05
2017-12-08T18:00:08.360Z,5.50
2017-12-08T18:02:37.166Z,4.32
2017-12-08T18:05:08.422Z,10.05
2017-12-08T18:07:36.063Z,8.98
2017-12-08T18:10:03.752Z,6.85
2017-12-08T18:12:39.782Z,8.82
2017-12-08T18:15:07.428Z,7.53
2017-12-08T18:17:35.045Z,8.60
2017-12-08T18:20:02.642Z,16.77
2017-12-08T18:22:30.291Z,45.85
2017-12-08T18:24:58.108Z,35.50
2017-12-08T18:27:27.290Z,123.82
2017-12-08T18:29:58.743Z,16.45
2017-12-08T18:32:26.366Z,12.82
2017-12-08T18:34:57.670Z,10.40
2017-12-08T18:37:26.324Z,5.45
2017-12-08T18:39:54.070Z,11.32
2017-12-08T18:42:21.956Z,14.02
2017-12-08T18:44:49.643Z,8.88
2017-12-08T18:47:17.342Z,10.02
2017-12-08T18:49:50.408Z,8.05
2017-12-08T18:52:18.789Z,11.45
2017-12-08T18:54:48.088Z,4.57
2017-12-08T18:57:16.454Z,9.55
2017-12-08T18:59:44.265Z,6.43
2017-12-08T19:02:11.887Z,7.60
2017-12-08T19:04:43.783Z,4.40
2017-12-08T19:07:11.508Z,6.25
2017-12-08T19:09:39.125Z,5.18
2017-12-08T19:12:12.907Z,5.97
2017-12-08T19:14:40.612Z,6.35
2017-12-08T19:17:08.706Z,6.53
2017-12-08T19:19:36.629Z,7.97
2017-12-08T19:22:04.217Z,7.53
2017-12-08T19:24:34.847Z,4.72
2017-12-08T19:27:02.707Z,8.02
2017-12-08T19:29:34.655Z,5.18
2017-12-08T19:32:02.404Z,3.85
2017-12-08T19:34:30.244Z,4.97
2017-12-08T19:36:58.320Z,11.02
2017-12-08T19:39:26.058Z,13.50
2017-12-08T19:41:54.125Z,9.15
2017-12-08T19:44:23.095Z,14.18
2017-12-08T19:46:52.269Z,10.60
2017-12-08T19:49:21.340Z,12.70
2017-12-08T19:51:53.714Z,7.40
2017-12-08T19:54:21.781Z,8.75
2017-12-08T19:56:49.567Z,9.07
2017-12-08T19:59:17.483Z,9.40
2017-12-08T20:01:45.552Z,8.45
2017-12-08T20:04:13.168Z,5.72
2017-12-08T20:06:40.851Z,7.82
2017-12-08T20:09:09.191Z,10.50
2017-12-08T20:11:37.480Z,8.30
2017-12-08T20:14:06.231Z,6.00
2017-12-08T20:16:34.617Z,5.85
2017-12-08T20:19:03.426Z,12.13
2017-12-08T20:21:32.515Z,5.12
2017-12-08T20:24:02.067Z,14.13
2017-12-08T20:26:29.822Z,5.32
2017-12-08T20:28:57.957Z,18.45
2017-12-08T20:31:28.024Z,8.88
2017-12-08T20:33:56.627Z,6.37
2017-12-08T20:36:25.100Z,6.97
2017-12-08T20:38:52.733Z,16.65
2017-12-08T20:41:20.328Z,11.02
2017-12-08T20:43:48.238Z,14.35
2017-12-08T20:46:19.438Z,12.27
2017-12-08T20:48:50.733Z,19.83
2017-12-08T20:51:18.315Z,9.07
2017-12-08T20:53:45.907Z,9.23
2017-12-08T20:56:13.495Z,5.72
2017-12-08T20:58:42.604Z,12.50
2017-12-08T21:01:12.661Z,8.95
2017-12-08T21:03:41.461Z,7.62
2017-12-08T21:06:10.548Z,13.23
2017-12-08T21:08:38.299Z,3.62
2017-12-08T21:11:09.179Z,5.85
2017-12-08T21:13:36.791Z,7.12
2017-12-08T21:16:04.341Z,8.18
2017-12-08T21:18:31.943Z,7.60
2017-12-08T21:20:59.508Z,5.95
2017-12-08T21:23:29.591Z,4.85
2017-12-08T21:25:58.264Z,4.82
2017-12-08T21:28:25.897Z,6.40
2017-12-08T21:30:53.507Z,6.93
2017-12-08T21:33:21.945Z,4.10
2017-12-08T21:35:52.477Z,5.60
2017-12-08T21:38:23.297Z,3.83
2017-12-08T21:40:50.974Z,2.33
2017-12-08T21:43:18.555Z,5.28
2017-12-08T21:45:46.224Z,5.40
2017-12-08T21:48:16.459Z,4.90
2017-12-08T21:50:44.054Z,4.15
2017-12-08T21:53:18.968Z,3.15
2017-12-08T21:55:46.532Z,1.95
2017-12-08T21:58:14.275Z,2.95
2017-12-08T22:00:41.923Z,6.80
2017-12-08T22:03:09.560Z,3.25
2017-12-08T22:05:37.540Z,3.78
2017-12-08T22:08:06.061Z,2.95
2017-12-08T22:10:33.617Z,4.00
2017-12-08T22:13:03.512Z,7.28
2017-12-08T22:15:31.143Z,2.87
2017-12-08T22:18:00.657Z,9.48
2017-12-08T22:20:31.705Z,4.10
2017-12-08T22:23:00.040Z,3.47
2017-12-08T22:25:29.400Z,5.72
2017-12-08T22:27:57.355Z,4.07
2017-12-08T22:30:24.960Z,9.25
2017-12-08T22:32:56.250Z,7.12
2017-12-08T22:35:25.451Z,5.22
2017-12-08T22:37:55.595Z,4.75
2017-12-08T22:40:23.381Z,5.78
2017-12-08T22:42:53.954Z,8.70
2017-12-08T22:45:23.374Z,7.97
2017-12-08T22:47:50.966Z,2.95
2017-12-08T22:50:18.645Z,3.03
2017-12-08T22:52:46.255Z,8.15
2017-12-08T22:55:13.820Z,3.62
2017-12-08T22:57:41.386Z,4.80
2017-12-08T23:00:10.208Z,5.62
2017-12-08T23:02:37.808Z,5.47
2017-12-08T23:05:05.403Z,6.30
2017-12-08T23:07:33.754Z,5.85
2017-12-08T23:10:01.318Z,5.00
2017-12-08T23:12:33.286Z,5.43
2017-12-08T23:15:00.875Z,8.95
2017-12-08T23:17:28.447Z,5.22
2017-12-08T23:19:56.040Z,5.75
2017-12-08T23:22:23.646Z,8.48
2017-12-08T23:24:51.972Z,5.87
2017-12-08T23:27:20.517Z,3.17
2017-12-08T23:29:48.070Z,8.68
2017-12-08T23:32:15.679Z,10.63
2017-12-08T23:34:46.339Z,6.62
2017-12-08T23:37:18.903Z,7.30
2017-12-08T23:39:49.007Z,3.97
2017-12-08T23:42:16.551Z,3.53
2017-12-08T23:44:44.147Z,7.80
2017-12-08T23:47:11.744Z,9.40
2017-12-08T23:49:39.350Z,3.70
2017-12-08T23:52:07.034Z,6.75
2017-12-08T23:54:34.585Z,6.00
2017-12-08T23:57:02.176Z,4.80
2017-12-08T23:59:29.771Z,8.90
